Time;durP1;ratioP1;P1;durP2;ratioP2;P2;SDS_P1;SDS_P2;PMS_P1;PMS_P2;Temp;Humidity;BMP_temperature;BMP_pressure;BME280_temperature;BME280_humidity;BME280_pressure;Samples;Min_cycle;Max_cycle;Signal;HPM_P1;HPM_P2
2024/03/02 00:00:15;;;;;;;1.83;0.93;;;9.30;81.70;;;;;;5016622;28;20054;-82
2024/03/02 00:02:41;;;;;;;2.73;0.90;;;9.30;81.80;;;;;;5014846;28;20014;-83
2024/03/02 00:05:07;;;;;;;1.93;0.70;;;9.30;81.80;;;;;;5016059;28;20025;-82
2024/03/02 00:07:33;;;;;;;2.37;0.90;;;9.30;81.80;;;;;;5015147;28;20026;-82
2024/03/02 00:10:00;;;;;;;2.83;0.70;;;9.30;81.80;;;;;;5016321;28;20537;-83
2024/03/02 00:12:26;;;;;;;5.03;0.87;;;9.30;81.80;;;;;;5017422;28;20026;-83
2024/03/02 00:14:53;;;;;;;2.87;0.87;;;9.30;81.80;;;;;;4999801;28;20597;-84
2024/03/02 00:17:27;;;;;;;3.57;0.90;;;9.30;81.80;;;;;;5016787;28;20097;-83
2024/03/02 00:19:53;;;;;;;2.27;0.80;;;9.30;81.90;;;;;;5015386;28;20034;-83
2024/03/02 00:22:24;;;;;;;2.20;0.80;;;9.30;81.90;;;;;;5016629;28;20022;-83
2024/03/02 00:24:49;;;;;;;4.17;0.90;;;9.30;81.80;;;;;;5014698;28;20018;-84
2024/03/02 00:27:17;;;;;;;3.13;1.23;;;9.30;81.90;;;;;;5022973;28;20031;-84
2024/03/02 00:29:43;;;;;;;3.20;0.90;;;9.30;82.00;;;;;;5017718;28;20026;-84
2024/03/02 00:32:13;;;;;;;2.97;0.80;;;9.30;82.00;;;;;;5016243;28;20049;-84
2024/03/02 00:34:39;;;;;;;10.07;1.10;;;9.30;82.00;;;;;;5019638;28;20097;-83
2024/03/02 00:37:06;;;;;;;2.43;0.70;;;9.40;82.00;;;;;;5018458;28;20049;-83
2024/03/02 00:39:32;;;;;;;3.07;0.83;;;9.40;81.90;;;;;;5020197;28;20033;-83
2024/03/02 00:41:58;;;;;;;2.60;1.00;;;9.40;82.00;;;;;;5018182;28;20029;-83
2024/03/02 00:44:26;;;;;;;1.53;0.60;;;9.40;82.10;;;;;;5020037;28;20026;-83
2024/03/02 00:46:53;;;;;;;3.13;0.90;;;9.40;82.10;;;;;;5019378;28;20022;-83
2024/03/02 00:49:21;;;;;;;3.57;0.67;;;9.40;82.00;;;;;;5019025;28;20029;-84
2024/03/02 00:51:53;;;;;;;3.43;0.60;;;9.50;82.10;;;;;;5019178;28;20462;-83
2024/03/02 00:54:24;;;;;;;2.70;0.70;;;9.40;82.10;;;;;;5019849;28;20040;-83
2024/03/02 00:56:51;;;;;;;2.23;0.67;;;9.40;82.00;;;;;;5019769;28;20030;-83
2024/03/02 00:59:17;;;;;;;3.43;0.80;;;9.50;82.20;;;;;;5018525;28;20089;-83
2024/03/02 01:01:43;;;;;;;3.87;1.13;;;9.50;82.90;;;;;;5025962;28;20022;-86
2024/03/02 01:04:09;;;;;;;3.10;0.70;;;9.50;82.30;;;;;;5030425;28;20053;-84
2024/03/02 01:06:35;;;;;;;4.87;1.67;;;9.50;82.30;;;;;;5019378;28;20030;-84
2024/03/02 01:09:02;;;;;;;4.07;0.77;;;9.50;82.20;;;;;;5019477;28;20057;-84
2024/03/02 01:11:28;;;;;;;2.20;0.60;;;9.50;82.30;;;;;;5017883;28;20045;-84
2024/03/02 01:13:54;;;;;;;4.77;0.90;;;9.50;82.40;;;;;;5019683;28;20022;-85
2024/03/02 01:16:19;;;;;;;2.20;0.70;;;9.50;82.40;;;;;;5034496;28;20023;-86
2024/03/02 01:18:45;;;;;;;2.87;0.60;;;9.50;82.10;;;;;;5019491;28;20056;-83
2024/03/02 01:21:11;;;;;;;4.30;0.73;;;9.50;82.30;;;;;;5018370;28;20022;-85
2024/03/02 01:23:37;;;;;;;2.00;0.47;;;9.40;82.50;;;;;;5018744;28;20037;-86
2024/03/02 01:26:03;;;;;;;2.87;0.40;;;9.40;82.90;;;;;;5035197;28;20074;-85
2024/03/02 01:28:29;;;;;;;1.00;0.40;;;9.40;83.70;;;;;;5020021;28;20033;-85
2024/03/02 01:30:54;;;;;;;0.97;0.27;;;9.40;83.70;;;;;;5018993;28;20018;-84
2024/03/02 01:33:21;;;;;;;1.07;0.20;;;9.40;83.70;;;;;;5017764;28;20084;-84
2024/03/02 01:35:47;;;;;;;0.53;0.20;;;9.40;84.00;;;;;;5020687;28;20033;-84
2024/03/02 01:38:13;;;;;;;0.30;0.20;;;9.40;84.10;;;;;;5021540;28;20116;-83
2024/03/02 01:40:39;;;;;;;1.40;0.33;;;9.40;84.20;;;;;;5022777;28;20028;-84
2024/03/02 01:43:06;;;;;;;0.60;0.20;;;9.40;84.60;;;;;;5022648;28;20046;-82
2024/03/02 01:45:32;;;;;;;0.40;0.20;;;9.40;85.00;;;;;;5024739;28;20045;-85
2024/03/02 01:47:58;;;;;;;0.97;0.20;;;9.40;84.90;;;;;;5038912;28;20037;-84
2024/03/02 01:50:32;;;;;;;0.70;0.20;;;9.30;85.10;;;;;;5021866;28;20022;-83
2024/03/02 01:52:59;;;;;;;0.50;0.17;;;9.40;85.30;;;;;;5023011;28;20033;-84
2024/03/02 01:55:25;;;;;;;1.80;0.30;;;9.40;85.40;;;;;;5021646;28;20088;-84
2024/03/02 01:57:52;;;;;;;0.50;0.20;;;9.40;85.30;;;;;;5022447;28;20034;-83
2024/03/02 02:00:19;;;;;;;0.87;0.30;;;9.40;85.40;;;;;;5021726;28;20108;-82
2024/03/02 02:02:46;;;;;;;1.20;0.27;;;9.40;85.90;;;;;;5021885;28;20026;-83
2024/03/02 02:05:12;;;;;;;0.53;0.20;;;9.40;86.00;;;;;;5022848;28;20056;-83
2024/03/02 02:07:38;;;;;;;0.83;0.20;;;9.30;85.90;;;;;;5021586;28;20025;-84
2024/03/02 02:10:04;;;;;;;0.93;0.10;;;9.30;86.00;;;;;;5022847;28;20050;-83
2024/03/02 02:12:30;;;;;;;0.30;0.20;;;9.30;86.10;;;;;;5021421;28;20030;-84
2024/03/02 02:14:55;;;;;;;0.87;0.30;;;9.30;86.20;;;;;;5022201;28;20130;-84
2024/03/02 02:17:21;;;;;;;0.50;0.20;;;9.30;86.40;;;;;;5021388;28;20025;-84
2024/03/02 02:19:47;;;;;;;0.70;0.20;;;9.30;86.40;;;;;;5021694;28;20104;-84
2024/03/02 02:22:13;;;;;;;1.17;0.20;;;9.20;86.30;;;;;;5022257;28;20033;-83
2024/03/02 02:24:42;;;;;;;0.30;0.20;;;9.20;86.40;;;;;;5020895;28;20028;-84
2024/03/02 02:27:08;;;;;;;0.40;0.10;;;9.20;86.50;;;;;;5022506;28;20026;-84
2024/03/02 02:29:34;;;;;;;0.37;0.20;;;9.20;86.80;;;;;;5021213;28;20050;-84
2024/03/02 02:32:00;;;;;;;0.83;0.20;;;9.20;86.70;;;;;;5021438;28;20030;-84
2024/03/02 02:34:26;;;;;;;0.23;0.20;;;9.20;86.70;;;;;;5021385;28;20080;-83
2024/03/02 02:36:52;;;;;;;2.20;0.20;;;9.20;86.80;;;;;;5021125;28;20061;-83
2024/03/02 02:39:22;;;;;;;0.30;0.10;;;9.20;86.70;;;;;;5021732;28;20021;-83
2024/03/02 02:41:48;;;;;;;0.30;0.20;;;9.20;86.80;;;;;;5021320;28;20119;-83
2024/03/02 02:44:14;;;;;;;0.43;0.17;;;9.20;86.80;;;;;;5022158;28;20114;-83
2024/03/02 02:46:41;;;;;;;0.20;0.10;;;9.20;86.90;;;;;;5020577;28;20462;-84
2024/03/02 02:49:07;;;;;;;0.30;0.20;;;9.20;87.00;;;;;;5020048;28;20026;-83
2024/03/02 02:51:33;;;;;;;0.37;0.20;;;9.20;87.00;;;;;;5021091;28;20014;-83
2024/03/02 02:53:59;;;;;;;1.20;0.27;;;9.20;87.10;;;;;;5020906;28;20375;-84
2024/03/02 02:56:24;;;;;;;0.47;0.20;;;9.10;87.20;;;;;;5020918;28;20045;-83
2024/03/02 02:58:50;;;;;;;0.50;0.20;;;9.10;87.40;;;;;;5020703;28;20014;-84
2024/03/02 03:01:17;;;;;;;1.37;0.20;;;9.20;87.40;;;;;;5021555;28;20021;-83
2024/03/02 03:03:44;;;;;;;0.97;0.17;;;9.10;87.40;;;;;;5021447;28;20029;-83
2024/03/02 03:06:10;;;;;;;0.60;0.20;;;9.10;87.50;;;;;;5021640;28;20046;-83
2024/03/02 03:08:36;;;;;;;0.60;0.30;;;9.10;87.60;;;;;;5026244;28;20050;-84
2024/03/02 03:11:01;;;;;;;0.40;0.10;;;9.10;87.80;;;;;;5024130;28;20040;-83
2024/03/02 03:13:27;;;;;;;1.37;0.20;;;9.10;87.80;;;;;;5023941;28;20021;-84
2024/03/02 03:15:53;;;;;;;2.83;0.30;;;9.00;88.10;;;;;;5023398;28;20037;-83
2024/03/02 03:18:19;;;;;;;0.57;0.20;;;9.00;88.20;;;;;;5024911;28;20045;-83
2024/03/02 03:20:44;;;;;;;0.20;0.13;;;8.90;88.40;;;;;;5023169;28;20021;-83
2024/03/02 03:23:14;;;;;;;0.30;0.10;;;8.90;88.50;;;;;;5024595;28;20085;-83
2024/03/02 03:25:41;;;;;;;0.57;0.20;;;8.90;88.40;;;;;;5023307;28;20546;-81
2024/03/02 03:28:09;;;;;;;0.40;0.20;;;8.90;88.70;;;;;;5023757;28;20021;-83
2024/03/02 03:30:38;;;;;;;0.30;0.10;;;8.90;88.90;;;;;;5023243;28;20021;-82
2024/03/02 03:33:06;;;;;;;3.03;0.30;;;8.80;89.20;;;;;;5023280;28;20033;-83
2024/03/02 03:35:32;;;;;;;1.10;0.20;;;8.80;89.80;;;;;;5024543;28;20041;-83
2024/03/02 03:37:58;;;;;;;0.40;0.10;;;8.80;89.80;;;;;;5022757;28;20049;-83
2024/03/02 03:40:24;;;;;;;0.50;0.20;;;8.80;89.90;;;;;;5042623;28;20025;-83
2024/03/02 03:42:50;;;;;;;0.77;0.20;;;8.70;90.00;;;;;;5022854;28;20400;-83
2024/03/02 03:45:16;;;;;;;0.50;0.20;;;8.70;90.10;;;;;;5023424;28;20033;-83
2024/03/02 03:47:42;;;;;;;0.50;0.20;;;8.70;90.10;;;;;;5023265;28;20405;-84
2024/03/02 03:50:08;;;;;;;0.47;0.20;;;8.70;90.20;;;;;;5023130;28;20393;-83
2024/03/02 03:52:34;;;;;;;0.63;0.20;;;8.70;90.30;;;;;;5023925;28;20122;-84
2024/03/02 03:55:00;;;;;;;0.90;0.20;;;8.70;90.20;;;;;;5040840;28;20085;-84
2024/03/02 03:57:26;;;;;;;0.30;0.10;;;8.70;90.40;;;;;;5024932;28;20025;-84
2024/03/02 03:59:53;;;;;;;1.10;0.20;;;8.60;90.30;;;;;;5023214;28;20397;-83
2024/03/02 04:02:19;;;;;;;0.30;0.10;;;8.60;90.40;;;;;;5024408;28;20402;-83
2024/03/02 04:04:45;;;;;;;0.60;0.20;;;8.60;90.50;;;;;;5024532;28;20017;-83
2024/03/02 04:07:10;;;;;;;0.60;0.20;;;8.60;90.60;;;;;;5024251;28;20025;-84
2024/03/02 04:09:36;;;;;;;0.87;0.20;;;8.60;90.50;;;;;;5021279;28;20117;-83
2024/03/02 04:12:02;;;;;;;1.57;0.40;;;8.60;91.10;;;;;;5019505;28;20033;-84
2024/03/02 04:14:28;;;;;;;0.30;0.20;;;8.60;90.90;;;;;;5020639;28;20033;-84
2024/03/02 04:16:53;;;;;;;0.60;0.20;;;8.60;90.80;;;;;;5018869;28;20033;-83
2024/03/02 04:19:19;;;;;;;0.73;0.27;;;8.60;90.90;;;;;;5020033;28;20061;-84
2024/03/02 04:21:44;;;;;;;0.50;0.20;;;8.60;90.90;;;;;;5019579;28;20102;-84
2024/03/02 04:24:10;;;;;;;0.40;0.20;;;8.60;90.90;;;;;;5019739;28;20014;-84
2024/03/02 04:26:36;;;;;;;0.83;0.30;;;8.50;90.90;;;;;;5020145;28;20159;-84
2024/03/02 04:29:01;;;;;;;0.40;0.20;;;8.50;90.90;;;;;;5018676;28;20029;-85
2024/03/02 04:31:27;;;;;;;1.60;0.40;;;8.50;90.90;;;;;;5019835;28;20093;-85
2024/03/02 04:33:54;;;;;;;1.13;0.30;;;8.50;91.10;;;;;;5018856;28;20474;-83
2024/03/02 04:36:19;;;;;;;0.50;0.20;;;8.50;90.90;;;;;;5019819;28;20038;-83
2024/03/02 04:38:45;;;;;;;1.40;0.20;;;8.50;90.90;;;;;;5018926;28;20117;-83
2024/03/02 04:41:11;;;;;;;0.70;0.20;;;8.50;91.00;;;;;;5019620;28;20116;-83
2024/03/02 04:43:36;;;;;;;0.53;0.27;;;8.40;90.90;;;;;;5019334;28;20037;-82
2024/03/02 04:46:02;;;;;;;0.27;0.20;;;8.40;90.80;;;;;;5018979;28;20022;-82
2024/03/02 04:48:28;;;;;;;0.47;0.20;;;8.40;90.90;;;;;;5019888;28;20033;-82
2024/03/02 04:50:54;;;;;;;0.23;0.20;;;8.30;90.90;;;;;;5018349;28;20029;-82
2024/03/02 04:53:19;;;;;;;0.83;0.23;;;8.30;90.90;;;;;;5020180;28;20022;-83
2024/03/02 04:55:58;;;;;;;0.50;0.20;;;8.30;91.00;;;;;;5018580;28;20097;-83
2024/03/02 04:58:23;;;;;;;0.60;0.30;;;8.20;91.00;;;;;;5018878;28;20342;-83
2024/03/02 05:00:49;;;;;;;1.50;0.30;;;8.20;91.00;;;;;;5019279;28;20081;-82
2024/03/02 05:03:14;;;;;;;2.90;0.37;;;8.10;91.10;;;;;;5018690;28;20498;-82
2024/03/02 05:05:40;;;;;;;3.27;0.30;;;8.10;91.20;;;;;;5019693;28;20064;-83
2024/03/02 05:08:06;;;;;;;0.80;0.20;;;8.10;91.30;;;;;;5018521;28;20055;-82
2024/03/02 05:10:32;;;;;;;0.30;0.20;;;8.00;91.40;;;;;;5022818;28;20502;-81
2024/03/02 05:12:59;;;;;;;0.70;0.20;;;8.00;91.40;;;;;;5024676;28;20029;-82
2024/03/02 05:15:25;;;;;;;0.50;0.20;;;8.00;91.50;;;;;;5026270;28;20033;-83
2024/03/02 05:17:51;;;;;;;0.57;0.23;;;8.00;91.50;;;;;;5026295;28;20029;-82
2024/03/02 05:20:17;;;;;;;0.40;0.20;;;8.00;91.70;;;;;;5025927;28;20025;-82
2024/03/02 05:22:43;;;;;;;0.67;0.20;;;7.90;91.60;;;;;;5044683;28;20041;-82
2024/03/02 05:25:12;;;;;;;1.30;0.23;;;7.90;91.70;;;;;;5026033;28;20083;-83
2024/03/02 05:27:37;;;;;;;1.00;0.20;;;7.90;91.70;;;;;;5026403;28;20029;-83
2024/03/02 05:30:06;;;;;;;0.67;0.30;;;7.90;91.90;;;;;;5025893;28;20024;-83
2024/03/02 05:32:32;;;;;;;0.50;0.20;;;7.90;91.90;;;;;;5025456;28;20504;-82
2024/03/02 05:34:57;;;;;;;1.93;0.20;;;7.90;92.00;;;;;;5025879;28;20025;-83
2024/03/02 05:37:23;;;;;;;1.63;0.30;;;7.80;91.90;;;;;;5025623;28;20025;-83
2024/03/02 05:39:49;;;;;;;0.77;0.30;;;7.80;92.00;;;;;;5026174;28;20022;-83
2024/03/02 05:42:16;;;;;;;1.60;0.40;;;7.80;92.10;;;;;;5025372;28;20034;-83
2024/03/02 05:44:42;;;;;;;0.60;0.20;;;7.80;92.00;;;;;;5026530;28;20021;-83
2024/03/02 05:47:10;;;;;;;0.90;0.30;;;7.70;91.90;;;;;;5025253;28;20030;-83
2024/03/02 05:49:36;;;;;;;2.37;0.30;;;7.70;91.90;;;;;;5043932;28;20071;-84
2024/03/02 05:52:02;;;;;;;2.00;0.40;;;7.70;92.00;;;;;;5025524;28;20089;-83
2024/03/02 05:54:28;;;;;;;2.83;0.30;;;7.60;92.00;;;;;;5024954;28;20053;-83
2024/03/02 05:56:54;;;;;;;0.60;0.20;;;7.60;92.00;;;;;;5026352;28;20095;-83
2024/03/02 05:59:19;;;;;;;2.50;0.30;;;7.60;92.10;;;;;;5025248;28;20116;-82
2024/03/02 06:01:46;;;;;;;0.67;0.30;;;7.60;92.10;;;;;;5025929;28;20029;-83
2024/03/02 06:04:13;;;;;;;1.53;0.30;;;7.50;92.10;;;;;;5024888;28;20030;-83
2024/03/02 06:06:39;;;;;;;2.27;0.40;;;7.50;92.10;;;;;;5025711;28;20040;-84
2024/03/02 06:09:07;;;;;;;1.33;0.20;;;7.50;92.10;;;;;;5024941;28;20041;-82
2024/03/02 06:11:34;;;;;;;0.57;0.20;;;7.50;92.10;;;;;;5025396;28;20116;-82
2024/03/02 06:13:59;;;;;;;1.20;0.30;;;7.50;92.10;;;;;;5025704;28;20068;-82
2024/03/02 06:16:25;;;;;;;0.40;0.20;;;7.40;92.00;;;;;;5024536;28;20448;-81
2024/03/02 06:18:51;;;;;;;1.40;0.20;;;7.40;92.10;;;;;;5043960;28;20025;-81
2024/03/02 06:21:18;;;;;;;0.50;0.20;;;7.30;92.00;;;;;;5024821;28;20039;-82
2024/03/02 06:23:44;;;;;;;1.50;0.30;;;7.30;92.00;;;;;;5024779;28;20099;-83
2024/03/02 06:26:09;;;;;;;1.10;0.20;;;7.30;92.00;;;;;;5024771;28;20020;-82
2024/03/02 06:28:35;;;;;;;2.33;0.27;;;7.30;92.10;;;;;;5024783;28;20029;-82
2024/03/02 06:31:02;;;;;;;0.57;0.20;;;7.30;92.10;;;;;;5024582;28;20075;-81
2024/03/02 06:33:28;;;;;;;1.70;0.23;;;7.20;92.20;;;;;;5024612;28;20022;-84
2024/03/02 06:35:54;;;;;;;1.33;0.30;;;7.20;92.20;;;;;;5025654;28;20037;-83
2024/03/02 06:38:20;;;;;;;2.70;0.30;;;7.20;92.20;;;;;;5023975;28;20025;-82
2024/03/02 06:40:45;;;;;;;2.57;0.40;;;7.20;92.20;;;;;;5025117;28;20040;-82
2024/03/02 06:43:11;;;;;;;1.07;0.30;;;7.20;92.30;;;;;;5024562;28;20025;-83
2024/03/02 06:45:37;;;;;;;0.93;0.30;;;7.20;92.40;;;;;;5024463;28;20100;-83
2024/03/02 06:48:02;;;;;;;0.40;0.30;;;7.30;92.50;;;;;;5025284;28;20045;-82
2024/03/02 06:50:28;;;;;;;0.47;0.20;;;7.30;92.50;;;;;;5026014;28;20037;-82
2024/03/02 06:52:55;;;;;;;2.93;0.20;;;7.30;92.60;;;;;;5025755;28;20473;-82
2024/03/02 06:55:22;;;;;;;1.27;0.30;;;7.30;92.60;;;;;;5043369;28;20093;-82
2024/03/02 06:57:47;;;;;;;1.33;0.27;;;7.30;92.60;;;;;;5044973;28;20051;-81
2024/03/02 07:00:13;;;;;;;1.90;0.30;;;7.40;92.70;;;;;;5043650;28;20021;-82
2024/03/02 07:02:42;;;;;;;1.23;0.30;;;7.40;92.80;;;;;;5062422;28;20031;-82
2024/03/02 07:05:08;;;;;;;0.53;0.23;;;7.50;92.80;;;;;;5043592;28;20024;-80
2024/03/02 07:07:35;;;;;;;0.77;0.33;;;7.50;92.80;;;;;;5043807;28;20070;-82
2024/03/02 07:10:01;;;;;;;0.80;0.30;;;7.50;92.80;;;;;;5044613;28;20040;-81
2024/03/02 07:12:27;;;;;;;0.97;0.37;;;7.50;92.80;;;;;;5061449;28;20036;-81
2024/03/02 07:17:31;;;;;;;1.70;0.40;;;7.50;92.90;;;;;;5054411;28;20524;-82
2024/03/02 07:19:57;;;;;;;1.73;0.30;;;7.50;92.90;;;;;;5041909;28;20072;-82
2024/03/02 07:22:23;;;;;;;0.40;0.20;;;7.50;92.90;;;;;;5040288;28;20029;-82
2024/03/02 07:24:49;;;;;;;0.90;0.30;;;7.60;92.90;;;;;;5039888;28;20010;-81
2024/03/02 07:27:15;;;;;;;2.17;0.40;;;7.50;93.00;;;;;;5042662;28;20024;-82
2024/03/02 07:29:42;;;;;;;2.00;0.40;;;7.60;93.00;;;;;;5060672;28;20047;-81
2024/03/02 07:32:08;;;;;;;2.67;0.33;;;7.60;93.00;;;;;;5042868;28;20025;-81
2024/03/02 07:34:34;;;;;;;2.53;0.30;;;7.60;93.00;;;;;;5042656;28;20037;-82
2024/03/02 07:37:00;;;;;;;0.40;0.30;;;7.70;93.40;;;;;;5043619;28;20021;-83
2024/03/02 07:39:26;;;;;;;2.53;0.30;;;7.80;93.20;;;;;;5043704;28;20025;-82
2024/03/02 07:41:52;;;;;;;2.53;0.47;;;7.80;93.30;;;;;;5043729;28;20024;-81
2024/03/02 07:44:18;;;;;;;2.00;0.40;;;7.80;93.20;;;;;;5044481;28;20016;-81
2024/03/02 07:46:51;;;;;;;0.87;0.33;;;7.90;93.20;;;;;;5043226;28;20056;-82
2024/03/02 07:49:20;;;;;;;0.60;0.30;;;7.90;93.20;;;;;;5043904;28;20025;-82
2024/03/02 07:51:46;;;;;;;0.97;0.23;;;7.90;93.10;;;;;;5042594;28;20043;-82
2024/03/02 07:54:11;;;;;;;2.13;0.43;;;8.00;93.20;;;;;;5060153;28;20025;-83
2024/03/02 07:56:37;;;;;;;0.60;0.33;;;8.10;93.20;;;;;;5042766;28;20029;-81
2024/03/02 07:59:04;;;;;;;0.67;0.30;;;8.20;93.20;;;;;;5042431;28;20017;-82
2024/03/02 08:01:33;;;;;;;1.57;0.40;;;8.30;93.20;;;;;;5061482;28;20028;-81
2024/03/02 08:04:00;;;;;;;1.00;0.30;;;8.30;93.10;;;;;;5042062;28;20062;-80
2024/03/02 08:06:29;;;;;;;1.20;0.30;;;8.40;93.00;;;;;;5042592;28;20024;-81
2024/03/02 08:08:59;;;;;;;2.63;0.30;;;8.40;93.00;;;;;;5038195;28;20124;-81
2024/03/02 08:11:27;;;;;;;4.17;0.60;;;8.50;92.90;;;;;;5038916;28;20029;-81
2024/03/02 08:13:54;;;;;;;3.50;0.57;;;8.60;92.70;;;;;;5040763;28;20033;-81
2024/03/02 08:16:23;;;;;;;4.37;0.50;;;8.70;92.60;;;;;;5038439;28;20097;-82
2024/03/02 08:18:49;;;;;;;3.23;0.30;;;8.70;92.70;;;;;;5041150;28;20025;-82
2024/03/02 08:21:16;;;;;;;0.77;0.30;;;8.80;92.60;;;;;;5037973;28;20030;-82
2024/03/02 08:23:42;;;;;;;4.90;0.40;;;8.90;92.50;;;;;;5039001;28;20017;-82
2024/03/02 08:26:09;;;;;;;3.03;0.30;;;8.90;92.40;;;;;;5038783;28;20029;-81
2024/03/02 08:28:34;;;;;;;3.30;0.43;;;8.90;92.00;;;;;;5038647;28;20021;-81
2024/03/02 08:31:00;;;;;;;1.47;0.30;;;9.00;91.70;;;;;;5038518;28;20044;-81
2024/03/02 08:33:26;;;;;;;1.30;0.40;;;9.00;91.60;;;;;;5038555;28;20115;-81
2024/03/02 08:35:52;;;;;;;2.70;0.50;;;9.00;91.50;;;;;;5039106;28;20064;-81
2024/03/02 08:38:17;;;;;;;1.03;0.30;;;9.00;91.30;;;;;;5038272;28;20017;-82
2024/03/02 08:40:44;;;;;;;1.47;0.30;;;9.00;91.30;;;;;;5039093;28;20024;-81
2024/03/02 08:43:10;;;;;;;2.60;0.40;;;9.10;91.10;;;;;;5038523;28;20105;-82
2024/03/02 08:45:39;;;;;;;6.90;0.50;;;9.10;90.90;;;;;;5038664;28;20347;-81
2024/03/02 08:48:07;;;;;;;2.63;0.50;;;9.10;90.90;;;;;;5039029;28;20025;-81
2024/03/02 08:50:32;;;;;;;2.27;0.50;;;9.10;90.80;;;;;;5037193;28;20044;-82
2024/03/02 08:52:58;;;;;;;1.40;0.37;;;9.10;90.80;;;;;;5039346;28;20014;-81
2024/03/02 08:55:24;;;;;;;1.17;0.33;;;9.10;90.70;;;;;;5039487;28;20085;-81
2024/03/02 08:57:50;;;;;;;2.10;0.47;;;9.10;90.50;;;;;;5039148;28;20037;-81
2024/03/02 09:00:16;;;;;;;1.93;0.40;;;9.20;90.40;;;;;;5038136;28;20010;-82
2024/03/02 09:02:44;;;;;;;1.90;0.33;;;9.20;90.30;;;;;;5038730;28;20036;-82
2024/03/02 09:05:10;;;;;;;4.30;0.43;;;9.20;90.00;;;;;;5039198;28;20032;-82
2024/03/02 09:07:35;;;;;;;4.37;0.60;;;9.30;89.80;;;;;;5033831;28;20045;-82
2024/03/02 09:10:01;;;;;;;3.33;0.40;;;9.30;90.00;;;;;;5028561;28;20505;-81
2024/03/02 09:12:27;;;;;;;2.63;0.50;;;9.40;89.20;;;;;;5037113;28;20034;-81
2024/03/02 09:14:52;;;;;;;4.60;0.47;;;9.40;89.80;;;;;;5038813;28;20014;-83
2024/03/02 09:17:18;;;;;;;3.73;0.40;;;9.50;89.00;;;;;;5037908;28;20010;-82
2024/03/02 09:19:44;;;;;;;2.13;0.37;;;9.50;88.70;;;;;;5037571;28;20104;-82
2024/03/02 09:22:09;;;;;;;3.83;0.50;;;9.50;88.20;;;;;;5037948;28;20022;-82
2024/03/02 09:24:35;;;;;;;2.43;0.30;;;9.50;88.10;;;;;;5035291;28;20024;-81
2024/03/02 09:27:01;;;;;;;3.30;0.40;;;9.60;87.30;;;;;;5038728;28;20088;-81
2024/03/02 09:29:27;;;;;;;2.70;0.33;;;9.60;87.10;;;;;;5037545;28;20065;-81
2024/03/02 09:31:52;;;;;;;4.47;0.40;;;9.60;86.30;;;;;;5038412;28;20067;-82
2024/03/02 09:34:18;;;;;;;4.40;0.60;;;9.70;86.50;;;;;;5036965;28;20010;-82
2024/03/02 09:36:43;;;;;;;6.13;0.40;;;9.70;86.70;;;;;;5038068;28;20026;-81
2024/03/02 09:39:10;;;;;;;7.17;0.70;;;9.70;87.00;;;;;;5037273;28;21699;-81
2024/03/02 09:41:38;;;;;;;4.73;0.53;;;9.80;86.70;;;;;;5037844;28;20021;-81
2024/03/02 09:44:08;;;;;;;4.97;0.43;;;9.80;85.80;;;;;;5038481;28;20033;-80
2024/03/02 09:46:35;;;;;;;4.57;0.50;;;9.90;86.10;;;;;;5037017;28;20104;-82
2024/03/02 09:49:01;;;;;;;2.70;0.50;;;9.90;85.60;;;;;;5039847;28;20032;-80
2024/03/02 09:51:26;;;;;;;4.30;0.83;;;9.90;85.00;;;;;;5037509;28;20037;-81
2024/03/02 09:53:53;;;;;;;2.83;0.60;;;10.00;85.60;;;;;;5038115;28;20024;-81
2024/03/02 09:56:20;;;;;;;4.78;0.60;;;10.10;85.60;;;;;;5039037;28;20342;-81
2024/03/02 09:58:46;;;;;;;4.23;0.50;;;10.20;84.20;;;;;;5040277;28;20055;-82
2024/03/02 10:01:12;;;;;;;4.10;0.60;;;10.20;83.50;;;;;;5041785;28;20105;-81
2024/03/02 10:03:38;;;;;;;2.23;0.43;;;10.30;83.70;;;;;;5040989;28;20022;-82
2024/03/02 10:06:24;;;;;;;2.92;0.52;;;10.50;84.10;;;;;;5042126;28;20017;-82
2024/03/02 10:08:51;;;;;;;1.98;0.40;;;10.60;83.90;;;;;;5040782;28;20111;-82
2024/03/02 10:11:35;;;;;;;3.67;0.50;;;11.00;84.20;;;;;;5041853;28;20030;-80
2024/03/02 10:14:09;;;;;;;5.30;0.63;;;11.40;84.20;;;;;;5041853;28;20032;-82
2024/03/02 10:16:39;;;;;;;2.03;0.40;;;11.80;82.70;;;;;;5040971;28;20044;-83
2024/03/02 10:19:24;;;;;;;3.45;0.30;;;12.20;81.10;;;;;;5042442;28;20465;-82
2024/03/02 10:21:50;;;;;;;3.17;0.32;;;12.70;80.30;;;;;;5042756;28;20052;-83
2024/03/02 10:24:17;;;;;;;3.33;0.20;;;13.40;81.40;;;;;;5041571;28;20424;-83
2024/03/02 10:26:43;;;;;;;2.97;0.50;;;14.00;79.70;;;;;;5042193;28;20013;-82
2024/03/02 10:29:12;;;;;;;4.97;0.65;;;14.60;77.50;;;;;;5041084;28;20036;-81
2024/03/02 10:31:39;;;;;;;1.40;0.32;;;15.20;76.30;;;;;;5041098;28;20022;-81
2024/03/02 10:34:06;;;;;;;4.57;0.40;;;15.80;75.70;;;;;;5041772;28;20017;-82
2024/03/02 10:36:34;;;;;;;2.80;0.45;;;16.50;73.50;;;;;;5041369;28;20085;-82
2024/03/02 10:39:03;;;;;;;2.78;0.35;;;16.90;71.90;;;;;;5041928;28;20030;-82
2024/03/02 10:41:36;;;;;;;2.70;0.30;;;17.40;68.90;;;;;;5041044;28;20082;-82
2024/03/02 10:44:07;;;;;;;1.55;0.30;;;17.80;66.50;;;;;;5041763;28;20272;-80
2024/03/02 10:46:34;;;;;;;1.92;0.30;;;18.20;64.90;;;;;;5040141;28;20084;-82
2024/03/02 10:49:02;;;;;;;1.83;0.25;;;18.60;63.60;;;;;;5041777;28;20026;-81
2024/03/02 10:51:31;;;;;;;1.90;0.35;;;18.90;64.40;;;;;;5040332;28;20027;-82
2024/03/02 10:54:01;;;;;;;1.67;0.30;;;19.40;64.40;;;;;;5041412;28;20072;-81
2024/03/02 10:56:38;;;;;;;2.80;0.43;;;19.90;64.20;;;;;;5040976;28;20037;-82
2024/03/02 10:59:35;;;;;;;2.92;0.40;;;20.40;62.60;;;;;;5040455;28;20115;-81
2024/03/02 11:02:03;;;;;;;1.65;0.40;;;20.70;58.60;;;;;;5041355;28;20026;-82
2024/03/02 11:04:30;;;;;;;1.50;0.20;;;21.00;58.50;;;;;;5040390;28;20033;-82
2024/03/02 11:07:06;;;;;;;2.20;0.30;;;21.10;56.30;;;;;;5040943;28;20028;-82
2024/03/02 11:09:35;;;;;;;1.35;0.30;;;21.30;55.80;;;;;;5050607;28;20108;-82
2024/03/02 11:12:07;;;;;;;1.65;0.40;;;21.40;56.50;;;;;;5043796;28;20017;-82
2024/03/02 11:14:34;;;;;;;1.13;0.30;;;21.70;55.60;;;;;;5062619;28;20108;-82
2024/03/02 11:17:02;;;;;;;1.05;0.30;;;22.00;54.30;;;;;;5042691;28;20029;-82
2024/03/02 11:19:28;;;;;;;2.03;0.30;;;22.10;53.80;;;;;;5040951;28;20028;-84
2024/03/02 11:21:54;;;;;;;1.45;0.30;;;22.30;51.40;;;;;;5029421;28;20022;-84
2024/03/02 11:24:35;;;;;;;2.42;0.40;;;22.30;51.30;;;;;;5043601;28;20042;-84
2024/03/02 11:27:05;;;;;;;1.63;0.30;;;22.50;50.10;;;;;;5043004;28;20048;-83
2024/03/02 11:29:40;;;;;;;1.27;0.25;;;22.60;49.80;;;;;;5040567;28;20043;-83
2024/03/02 11:32:21;;;;;;;3.22;0.20;;;22.70;49.70;;;;;;5043922;28;20032;-83
2024/03/02 11:34:49;;;;;;;2.70;0.40;;;23.00;48.90;;;;;;5041937;28;20055;-82
2024/03/02 11:37:16;;;;;;;1.10;0.30;;;23.20;49.60;;;;;;5042334;28;20062;-83
2024/03/02 11:39:44;;;;;;;1.23;0.28;;;23.50;48.50;;;;;;5041467;28;20017;-84
2024/03/02 11:42:13;;;;;;;3.53;0.30;;;23.70;47.80;;;;;;5043008;28;20037;-81
2024/03/02 11:44:50;;;;;;;2.58;0.38;;;23.90;47.40;;;;;;5043884;28;20032;-83
2024/03/02 11:47:17;;;;;;;1.98;0.35;;;24.00;46.80;;;;;;5042816;28;20017;-84
2024/03/02 11:49:54;;;;;;;1.70;0.30;;;24.40;46.90;;;;;;5042479;28;20082;-84
2024/03/02 11:52:22;;;;;;;0.90;0.30;;;24.60;45.90;;;;;;5042880;28;20021;-84
2024/03/02 11:54:48;;;;;;;0.98;0.30;;;24.80;46.00;;;;;;5041961;28;20546;-83
2024/03/02 11:57:26;;;;;;;2.58;0.40;;;24.90;44.30;;;;;;5042602;28;20047;-85
2024/03/02 11:59:52;;;;;;;6.38;0.50;;;24.80;44.30;;;;;;5042633;28;20039;-84
2024/03/02 12:02:20;;;;;;;5.68;0.50;;;24.80;44.30;;;;;;5061262;28;20040;-84
2024/03/02 12:04:48;;;;;;;5.40;0.50;;;25.10;44.20;;;;;;5041537;28;20098;-84
2024/03/02 12:07:23;;;;;;;1.17;0.32;;;25.10;44.00;;;;;;5039131;28;20033;-83
2024/03/02 12:09:50;;;;;;;1.02;0.20;;;25.20;42.80;;;;;;5060821;28;20082;-84
2024/03/02 12:12:18;;;;;;;1.90;0.35;;;25.40;43.00;;;;;;5058339;28;20021;-84
2024/03/02 12:14:51;;;;;;;1.48;0.30;;;25.60;42.20;;;;;;5063417;28;20012;-85
2024/03/02 12:17:17;;;;;;;1.00;0.30;;;25.60;42.00;;;;;;5061640;28;20113;-85
2024/03/02 12:19:43;;;;;;;2.90;0.45;;;25.80;41.70;;;;;;5038127;28;20049;-84
2024/03/02 12:22:08;;;;;;;1.55;0.30;;;25.90;41.70;;;;;;5042047;28;20025;-84
2024/03/02 12:24:34;;;;;;;1.98;0.40;;;26.10;41.90;;;;;;5042469;28;20036;-84
2024/03/02 12:27:00;;;;;;;1.50;0.40;;;26.30;41.50;;;;;;5042758;28;20096;-83
2024/03/02 12:29:29;;;;;;;1.25;0.20;;;26.50;40.90;;;;;;5043291;28;20040;-90
2024/03/02 12:31:55;;;;;;;1.67;0.30;;;26.60;39.90;;;;;;5042800;28;20024;-87
2024/03/02 12:34:22;;;;;;;1.38;0.30;;;26.50;39.80;;;;;;5061430;28;20044;-88
2024/03/02 12:36:49;;;;;;;2.03;0.30;;;26.50;39.20;;;;;;5061791;28;20040;-90
2024/03/02 12:39:19;;;;;;;2.05;0.38;;;26.20;38.70;;;;;;5042432;28;20013;-90
2024/03/02 12:41:50;;;;;;;1.45;0.30;;;25.80;37.90;;;;;;5025692;28;20033;-91
2024/03/02 12:44:16;;;;;;;2.50;0.47;;;25.30;38.10;;;;;;5044016;28;20017;-91
2024/03/02 12:46:42;;;;;;;2.60;0.40;;;24.80;38.70;;;;;;5057686;28;20048;-90
2024/03/02 12:49:14;;;;;;;3.80;0.28;;;24.30;39.20;;;;;;5043500;28;20040;-91
2024/03/02 12:51:40;;;;;;;1.85;0.22;;;24.00;39.90;;;;;;5042246;28;20017;-88
2024/03/02 12:54:10;;;;;;;1.83;0.50;;;24.20;40.60;;;;;;5062895;28;20017;-91
2024/03/02 12:56:45;;;;;;;3.10;0.50;;;24.50;40.40;;;;;;5042462;28;20040;-91